Aura, New Jersey
Current Conditions -  °F | °C
As of 12:54 PM on Wednesday 28 Jan 2015 (Local Time) from KPHL Reporting Station
Clear Clear  
Wind Chill: 19°   Ceiling: Unl
Heat Index: 31°   Visibility: 10mi
Dew Point:   Wind: 20mph
Humidity: 29%   Direction: 320°NW
Pressure: 30.14"   Gusts: 26mph
Location:  39.6996°N, 75.1187°W
Report Text: KPHL 281754Z 32017G23KT 10SM CLR M01/M17 A3014 RMK AO2 SLP204 T10061167 11006 21067 58002 $
Loading
Personal Weather Stations






























Interactive Weather Map New forecast layout! Learn more

10-Day Weather Forecast

Advertisements
Track Severe Weather on mobile